createdAt,value
2023-05-11T00:00:10.235Z,4.60
2023-05-11T00:01:12.756Z,4.60
2023-05-11T00:02:15.479Z,4.70
2023-05-11T00:03:18.126Z,5.23
2023-05-11T00:04:20.580Z,4.83
2023-05-11T00:05:22.982Z,4.47
2023-05-11T00:06:25.290Z,4.70
2023-05-11T00:07:27.624Z,4.50
2023-05-11T00:08:30.061Z,5.50
2023-05-11T00:09:32.326Z,4.80
2023-05-11T00:10:34.544Z,4.70
2023-05-11T00:11:36.983Z,4.97
2023-05-11T00:12:39.270Z,4.67
2023-05-11T00:13:41.897Z,3.70
2023-05-11T00:14:44.180Z,3.87
2023-05-11T00:15:46.540Z,4.77
2023-05-11T00:16:48.883Z,4.63
2023-05-11T00:17:51.265Z,4.80
2023-05-11T00:18:53.659Z,4.40
2023-05-11T00:19:57.564Z,4.40
2023-05-11T00:20:59.821Z,4.87
2023-05-11T00:22:02.095Z,4.30
2023-05-11T00:23:04.557Z,4.63
2023-05-11T00:24:07.521Z,5.10
2023-05-11T00:25:10.042Z,4.40
2023-05-11T00:26:12.344Z,4.93
2023-05-11T00:27:15.307Z,5.00
2023-05-11T00:28:17.616Z,5.13
2023-05-11T00:29:20.179Z,5.10
2023-05-11T00:30:22.491Z,4.43
2023-05-11T00:31:30.169Z,4.73
2023-05-11T00:32:32.817Z,4.50
2023-05-11T00:33:35.399Z,4.30
2023-05-11T00:34:38.737Z,4.10
2023-05-11T00:35:41.152Z,4.43
2023-05-11T00:36:44.359Z,4.77
2023-05-11T00:37:46.682Z,4.33
2023-05-11T00:38:50.277Z,4.50
2023-05-11T00:39:52.621Z,4.30
2023-05-11T00:40:55.617Z,4.77
2023-05-11T00:41:58.243Z,4.40
2023-05-11T00:43:01.851Z,4.50
2023-05-11T00:44:04.623Z,4.20
2023-05-11T00:45:07.690Z,4.67
2023-05-11T00:46:10.947Z,4.70
2023-05-11T00:47:13.476Z,4.53
2023-05-11T00:48:17.191Z,5.87
2023-05-11T00:49:21.691Z,4.27
2023-05-11T00:50:25.155Z,5.67
2023-05-11T00:51:28.629Z,4.43
2023-05-11T00:52:30.929Z,4.57
2023-05-11T00:53:33.790Z,4.17
2023-05-11T00:54:37.897Z,4.60
2023-05-11T00:55:40.621Z,5.43
2023-05-11T00:56:43.225Z,4.57
2023-05-11T00:57:45.815Z,4.90
2023-05-11T00:58:48.866Z,4.73
2023-05-11T00:59:51.299Z,4.50
2023-05-11T01:00:53.789Z,4.47
2023-05-11T01:01:56.723Z,4.90
2023-05-11T01:03:01.674Z,4.73
2023-05-11T01:04:04.198Z,5.20
2023-05-11T01:05:07.384Z,4.83
2023-05-11T01:06:44.805Z,4.30
2023-05-11T01:07:58.403Z,4.37
2023-05-11T01:09:09.679Z,5.00
2023-05-11T01:10:44.968Z,4.90
2023-05-11T01:12:27.892Z,4.60
2023-05-11T01:13:35.304Z,4.17
2023-05-11T01:15:01.123Z,5.43
2023-05-11T01:16:14.333Z,4.50
2023-05-11T01:17:30.452Z,4.63
2023-05-11T01:18:51.448Z,4.83
2023-05-11T01:20:04.498Z,5.67
2023-05-11T01:21:08.987Z,4.57
2023-05-11T01:22:34.208Z,4.93
2023-05-11T01:23:48.758Z,4.63
2023-05-11T01:25:33.763Z,5.23
2023-05-11T01:26:59.025Z,4.83
2023-05-11T01:28:26.187Z,4.73
2023-05-11T01:29:49.835Z,4.90
2023-05-11T01:31:02.711Z,5.40
2023-05-11T01:32:15.746Z,4.80
2023-05-11T01:33:25.257Z,5.00
2023-05-11T01:34:32.165Z,4.70
2023-05-11T01:35:43.086Z,5.03
2023-05-11T01:37:10.183Z,4.87
2023-05-11T01:38:19.482Z,4.40
2023-05-11T01:39:27.960Z,5.00
2023-05-11T01:40:34.415Z,4.73
2023-05-11T01:41:40.482Z,4.50
2023-05-11T01:42:47.953Z,5.00
2023-05-11T01:43:56.075Z,4.83
2023-05-11T01:45:01.550Z,4.70
2023-05-11T01:46:05.495Z,4.87
2023-05-11T01:47:11.822Z,5.20
2023-05-11T01:48:21.758Z,5.47
2023-05-11T01:49:24.654Z,6.23
2023-05-11T01:50:27.039Z,5.20
2023-05-11T01:51:34.858Z,4.70
2023-05-11T01:52:40.087Z,4.83
2023-05-11T01:53:44.675Z,5.67
2023-05-11T01:54:50.068Z,4.47
2023-05-11T01:55:54.698Z,4.80
2023-05-11T01:56:58.265Z,5.30
2023-05-11T01:58:03.558Z,5.13
2023-05-11T01:59:06.911Z,4.93
2023-05-11T02:00:09.962Z,4.60
2023-05-11T02:01:18.272Z,5.03
2023-05-11T02:02:21.960Z,6.13
2023-05-11T02:03:27.721Z,4.83
2023-05-11T02:04:31.898Z,5.03
2023-05-11T02:05:36.606Z,4.73
2023-05-11T02:06:40.521Z,5.00
2023-05-11T02:07:43.742Z,5.40
2023-05-11T02:08:47.552Z,5.20
2023-05-11T02:09:53.209Z,5.07
2023-05-11T02:10:59.483Z,5.40
2023-05-11T02:12:06.950Z,6.83
2023-05-11T02:13:11.176Z,6.87
2023-05-11T02:14:15.860Z,6.10
2023-05-11T02:15:19.693Z,5.30
2023-05-11T02:16:24.173Z,6.17
2023-05-11T02:17:27.421Z,6.10
2023-05-11T02:18:31.562Z,6.07
2023-05-11T02:19:37.360Z,6.27
2023-05-11T02:20:44.305Z,6.00
2023-05-11T02:21:49.958Z,6.43
2023-05-11T02:22:54.778Z,6.07
2023-05-11T02:23:59.301Z,5.50
2023-05-11T02:25:01.813Z,5.97
2023-05-11T02:26:05.791Z,6.33
2023-05-11T02:27:08.409Z,7.13
2023-05-11T02:28:10.873Z,5.90
2023-05-11T02:29:13.174Z,5.80
2023-05-11T02:30:15.984Z,5.80
2023-05-11T02:31:28.107Z,6.87
2023-05-11T02:32:35.217Z,6.10
2023-05-11T02:33:43.167Z,6.00
2023-05-11T02:34:54.549Z,5.63
2023-05-11T02:35:59.367Z,5.67
2023-05-11T02:37:09.728Z,7.10
2023-05-11T02:38:14.721Z,6.57
2023-05-11T02:39:22.154Z,7.00
2023-05-11T02:40:34.487Z,6.50
2023-05-11T02:41:46.272Z,5.50
2023-05-11T02:42:55.189Z,5.90
2023-05-11T02:44:03.431Z,6.10
2023-05-11T02:45:09.221Z,5.53
2023-05-11T02:46:17.457Z,5.70
2023-05-11T02:47:23.289Z,5.83
2023-05-11T02:48:34.686Z,5.63
2023-05-11T02:49:38.741Z,5.40
2023-05-11T02:50:44.601Z,5.63
2023-05-11T02:51:49.492Z,5.30
2023-05-11T02:52:55.972Z,6.47
2023-05-11T02:53:59.870Z,5.63
2023-05-11T02:55:06.674Z,5.50
2023-05-11T02:56:09.464Z,5.50
2023-05-11T02:57:12.131Z,5.80
2023-05-11T02:58:15.290Z,5.63
2023-05-11T02:59:23.348Z,5.93
2023-05-11T03:00:25.907Z,5.53
2023-05-11T03:01:30.854Z,5.63
2023-05-11T03:02:33.562Z,5.10
2023-05-11T03:03:36.381Z,5.63
2023-05-11T03:04:40.011Z,6.00
2023-05-11T03:05:43.972Z,5.50
2023-05-11T03:06:46.541Z,5.40
2023-05-11T03:07:48.823Z,6.53
2023-05-11T03:08:52.818Z,5.80
2023-05-11T03:09:55.214Z,5.17
2023-05-11T03:10:58.553Z,5.90
2023-05-11T03:12:04.864Z,5.07
2023-05-11T03:13:10.254Z,5.23
2023-05-11T03:14:13.701Z,6.57
2023-05-11T03:15:18.100Z,5.03
2023-05-11T03:16:23.960Z,5.60
2023-05-11T03:17:27.885Z,5.27
2023-05-11T03:18:31.665Z,5.20
2023-05-11T03:19:34.135Z,5.50
2023-05-11T03:20:40.757Z,5.13
2023-05-11T03:21:43.356Z,5.40
2023-05-11T03:22:46.650Z,5.17
2023-05-11T03:23:50.032Z,5.30
2023-05-11T03:24:53.208Z,5.37
2023-05-11T03:25:56.560Z,5.23
2023-05-11T03:27:02.666Z,5.57
2023-05-11T03:28:07.448Z,5.33
2023-05-11T03:29:13.519Z,5.40
2023-05-11T03:30:17.823Z,5.30
2023-05-11T03:31:23.871Z,5.50
2023-05-11T03:32:27.714Z,6.17
2023-05-11T03:33:30.899Z,4.90
2023-05-11T03:34:34.294Z,5.00
2023-05-11T03:35:38.026Z,4.60
2023-05-11T03:36:41.233Z,6.60
2023-05-11T03:37:45.874Z,5.13
2023-05-11T03:38:50.617Z,5.20
2023-05-11T03:39:59.802Z,5.80
2023-05-11T03:41:03.954Z,5.07
2023-05-11T03:42:10.037Z,6.63
2023-05-11T03:43:16.710Z,5.37
2023-05-11T03:44:24.199Z,5.10
2023-05-11T03:45:30.243Z,5.70
2023-05-11T03:46:36.465Z,5.27
2023-05-11T03:47:41.400Z,6.57
2023-05-11T03:48:45.523Z,5.20
2023-05-11T03:49:53.343Z,5.23
2023-05-11T03:50:56.363Z,5.73
2023-05-11T03:51:59.563Z,7.47
2023-05-11T03:53:02.719Z,5.13
2023-05-11T03:54:07.178Z,5.37
2023-05-11T03:55:10.958Z,5.50
2023-05-11T03:56:13.354Z,6.03
2023-05-11T03:57:16.234Z,5.43
2023-05-11T03:58:18.527Z,5.13
2023-05-11T03:59:21.206Z,6.73
2023-05-11T04:00:23.652Z,5.37
2023-05-11T04:01:27.019Z,6.40
2023-05-11T04:02:29.415Z,5.43
2023-05-11T04:03:31.914Z,5.00
2023-05-11T04:04:36.280Z,4.87
2023-05-11T04:05:38.589Z,6.50
2023-05-11T04:06:43.938Z,5.10
2023-05-11T04:07:52.384Z,5.13
2023-05-11T04:08:55.962Z,5.17
2023-05-11T04:09:58.258Z,5.27
2023-05-11T04:11:00.614Z,4.90
2023-05-11T04:12:03.942Z,7.13
2023-05-11T04:13:06.378Z,5.87
2023-05-11T04:14:08.708Z,5.60
2023-05-11T04:15:11.469Z,5.50
2023-05-11T04:16:13.843Z,4.60
2023-05-11T04:17:17.528Z,5.10
2023-05-11T04:18:20.322Z,5.17
2023-05-11T04:19:22.633Z,5.87
2023-05-11T04:20:25.402Z,6.73
2023-05-11T04:21:27.994Z,5.93
2023-05-11T04:22:30.380Z,5.77
2023-05-11T04:23:32.606Z,4.80
2023-05-11T04:24:35.264Z,4.90
2023-05-11T04:25:37.757Z,4.83
2023-05-11T04:26:40.009Z,5.63
2023-05-11T04:27:42.241Z,5.10
2023-05-11T04:28:44.502Z,4.97
2023-05-11T04:29:46.793Z,5.10
2023-05-11T04:30:54.548Z,4.77
2023-05-11T04:31:57.464Z,5.53
2023-05-11T04:33:02.253Z,5.87
2023-05-11T04:34:08.991Z,5.13
2023-05-11T04:35:12.436Z,5.07
2023-05-11T04:36:17.000Z,4.53
2023-05-11T04:37:19.605Z,5.40
2023-05-11T04:38:23.123Z,6.07
2023-05-11T04:39:25.501Z,4.87
2023-05-11T04:40:28.115Z,6.10
2023-05-11T04:41:30.766Z,5.10
2023-05-11T04:42:34.742Z,5.93
2023-05-11T04:43:38.897Z,5.20
2023-05-11T04:44:43.707Z,5.50
2023-05-11T04:45:50.265Z,5.10
2023-05-11T04:46:57.805Z,8.33
2023-05-11T04:48:00.285Z,5.10
2023-05-11T04:49:02.655Z,6.30
2023-05-11T04:50:06.481Z,5.30
2023-05-11T04:51:11.112Z,5.73
2023-05-11T04:52:17.297Z,5.10
2023-05-11T04:53:23.666Z,6.13
2023-05-11T04:54:26.000Z,5.17
2023-05-11T04:55:28.394Z,4.97
2023-05-11T04:56:31.744Z,5.35
2023-05-11T04:57:34.981Z,6.80
2023-05-11T04:58:38.604Z,5.10
2023-05-11T04:59:41.087Z,6.13
2023-05-11T05:00:43.382Z,7.43
2023-05-11T05:01:45.702Z,6.93
2023-05-11T05:02:50.976Z,5.35
2023-05-11T05:03:53.316Z,7.60
2023-05-11T05:04:55.750Z,5.53
2023-05-11T05:05:59.011Z,5.53
2023-05-11T05:07:01.708Z,4.80
2023-05-11T05:08:04.268Z,6.88
2023-05-11T05:09:07.063Z,4.88
2023-05-11T05:10:12.723Z,4.72
2023-05-11T05:11:15.308Z,4.70
2023-05-11T05:12:17.697Z,4.50
2023-05-11T05:13:20.034Z,4.65
2023-05-11T05:14:22.301Z,4.78
2023-05-11T05:15:24.753Z,4.32
2023-05-11T05:16:27.114Z,4.35
2023-05-11T05:17:29.928Z,5.47
2023-05-11T05:18:32.552Z,5.57
2023-05-11T05:19:35.239Z,6.82
2023-05-11T05:20:37.705Z,5.15
2023-05-11T05:21:40.858Z,4.18
2023-05-11T05:22:43.229Z,5.10
2023-05-11T05:23:45.698Z,5.15
2023-05-11T05:24:48.021Z,5.72
2023-05-11T05:25:50.328Z,7.05
2023-05-11T05:26:52.681Z,5.07
2023-05-11T05:27:55.018Z,5.03
2023-05-11T05:28:57.311Z,4.60
2023-05-11T05:30:00.430Z,5.22
2023-05-11T05:31:02.874Z,4.63
2023-05-11T05:32:05.547Z,4.35
2023-05-11T05:33:08.143Z,5.25
2023-05-11T05:34:12.204Z,4.07
2023-05-11T05:35:15.321Z,5.55
2023-05-11T05:36:19.186Z,6.97
2023-05-11T05:37:22.947Z,4.63
2023-05-11T05:39:27.650Z,4.47
2023-05-11T05:40:29.978Z,4.35
2023-05-11T05:41:32.676Z,4.20
2023-05-11T05:42:35.684Z,4.35
2023-05-11T05:43:38.497Z,5.25
2023-05-11T05:44:42.083Z,4.32
2023-05-11T05:45:44.394Z,4.82
2023-05-11T05:46:46.787Z,4.25
2023-05-11T05:47:49.530Z,5.38
2023-05-11T05:48:52.216Z,3.80
2023-05-11T05:49:55.006Z,3.97
2023-05-11T05:50:57.353Z,5.57
2023-05-11T05:52:00.858Z,4.65
2023-05-11T05:53:03.500Z,4.28
2023-05-11T05:54:06.918Z,4.18
2023-05-11T05:55:09.360Z,7.15
2023-05-11T05:56:11.916Z,4.70
2023-05-11T05:57:15.963Z,5.88
2023-05-11T05:58:20.215Z,6.47
2023-05-11T05:59:24.552Z,3.92
2023-05-11T06:00:32.389Z,4.55
2023-05-11T06:01:46.522Z,4.15
2023-05-11T06:02:50.776Z,7.95
2023-05-11T06:04:01.662Z,6.28
2023-05-11T06:05:04.579Z,5.43
2023-05-11T06:06:07.538Z,5.05
2023-05-11T06:07:09.838Z,5.55
2023-05-11T06:08:12.659Z,3.65
2023-05-11T06:09:15.206Z,5.00
2023-05-11T06:10:17.972Z,4.22
2023-05-11T06:11:22.785Z,5.25
2023-05-11T06:12:27.153Z,3.92
2023-05-11T06:13:31.418Z,4.28
2023-05-11T06:14:35.607Z,5.30
2023-05-11T06:15:39.465Z,3.88
2023-05-11T06:16:49.426Z,4.43
2023-05-11T06:17:51.787Z,4.10
2023-05-11T06:18:54.114Z,4.75
2023-05-11T06:19:56.478Z,4.20
2023-05-11T06:21:02.204Z,9.80
2023-05-11T06:22:07.076Z,4.13
2023-05-11T06:23:12.133Z,4.10
2023-05-11T06:24:16.211Z,4.00
2023-05-11T06:25:20.208Z,4.13
2023-05-11T06:26:25.337Z,4.03
2023-05-11T06:27:28.319Z,4.30
2023-05-11T06:28:32.697Z,5.93
2023-05-11T06:29:39.170Z,4.05
2023-05-11T06:30:41.452Z,5.30
2023-05-11T06:31:44.796Z,3.78
2023-05-11T06:32:47.133Z,3.85
2023-05-11T06:33:51.500Z,4.55
2023-05-11T06:35:00.636Z,3.70
2023-05-11T06:36:07.085Z,4.13
2023-05-11T06:37:11.617Z,4.47
2023-05-11T06:38:13.875Z,4.55
2023-05-11T06:39:16.643Z,5.82
2023-05-11T06:40:19.244Z,7.00
2023-05-11T06:41:21.825Z,3.63
2023-05-11T06:42:24.229Z,9.07
2023-05-11T06:43:26.994Z,3.97
2023-05-11T06:44:29.555Z,3.95
2023-05-11T06:45:33.348Z,4.55
2023-05-11T06:46:35.942Z,3.97
2023-05-11T06:47:39.536Z,3.20
2023-05-11T06:48:42.417Z,4.85
2023-05-11T06:49:45.176Z,6.63
2023-05-11T06:50:47.475Z,3.33
2023-05-11T06:51:50.021Z,3.85
2023-05-11T06:52:52.386Z,4.47
2023-05-11T06:53:54.657Z,3.47
2023-05-11T06:54:57.097Z,3.70
2023-05-11T06:55:59.606Z,3.40
2023-05-11T06:57:05.002Z,3.55
2023-05-11T06:58:07.642Z,4.40
2023-05-11T06:59:09.955Z,6.13
2023-05-11T07:00:12.946Z,3.60
2023-05-11T07:01:16.245Z,3.47
2023-05-11T07:02:18.582Z,4.50
2023-05-11T07:03:20.905Z,6.70
2023-05-11T07:04:23.180Z,3.35
2023-05-11T07:05:25.559Z,3.65
2023-05-11T07:06:28.031Z,3.65
2023-05-11T07:07:30.285Z,4.68
2023-05-11T07:08:34.040Z,3.65
2023-05-11T07:09:36.296Z,2.72
2023-05-11T07:10:38.609Z,4.13
2023-05-11T07:11:41.588Z,3.10
2023-05-11T07:12:43.877Z,3.78
2023-05-11T07:13:46.267Z,3.22
2023-05-11T07:14:48.526Z,3.35
2023-05-11T07:15:50.733Z,3.35
2023-05-11T07:16:53.155Z,4.32
2023-05-11T07:17:55.705Z,3.10
2023-05-11T07:18:58.136Z,5.75
2023-05-11T07:20:00.490Z,4.75
2023-05-11T07:21:02.796Z,3.67
2023-05-11T07:22:06.262Z,3.70
2023-05-11T07:23:08.806Z,4.05
2023-05-11T07:24:11.265Z,3.40
2023-05-11T07:25:13.608Z,4.00
2023-05-11T07:26:15.901Z,3.53
2023-05-11T07:27:18.136Z,3.42
2023-05-11T07:28:20.819Z,4.05
2023-05-11T07:29:23.224Z,3.10
2023-05-11T07:30:25.894Z,3.20
2023-05-11T07:31:30.277Z,3.15
2023-05-11T07:32:32.762Z,3.00
2023-05-11T07:33:38.083Z,4.45
2023-05-11T07:34:41.371Z,3.85
2023-05-11T07:35:43.687Z,3.20
2023-05-11T07:36:46.944Z,3.85
2023-05-11T07:37:49.209Z,3.65
2023-05-11T07:38:51.451Z,3.00
2023-05-11T07:39:54.503Z,2.95
2023-05-11T07:40:57.036Z,3.97
2023-05-11T07:41:59.595Z,3.10
2023-05-11T07:43:02.066Z,3.42
2023-05-11T07:44:04.409Z,3.22
2023-05-11T07:45:07.129Z,3.92
2023-05-11T07:46:09.550Z,4.40
2023-05-11T07:47:12.234Z,4.13
2023-05-11T07:48:14.597Z,3.28
2023-05-11T07:49:22.953Z,3.70
2023-05-11T07:50:34.493Z,3.42
2023-05-11T07:51:37.506Z,4.47
2023-05-11T07:52:39.821Z,3.10
2023-05-11T07:53:42.080Z,3.25
2023-05-11T07:54:44.913Z,3.97
2023-05-11T07:55:47.307Z,2.95
2023-05-11T07:56:50.785Z,3.88
2023-05-11T07:57:54.579Z,3.20
2023-05-11T07:58:58.244Z,3.05
2023-05-11T08:00:01.997Z,3.03
2023-05-11T08:01:14.036Z,4.05
2023-05-11T08:02:16.904Z,3.38
2023-05-11T08:03:19.276Z,3.35
2023-05-11T08:04:21.545Z,2.88
2023-05-11T08:05:23.835Z,6.78
2023-05-11T08:06:26.105Z,3.10
2023-05-11T08:07:29.576Z,3.95
2023-05-11T08:08:31.819Z,3.92
2023-05-11T08:09:34.383Z,4.28
2023-05-11T08:10:37.299Z,3.60
2023-05-11T08:11:39.549Z,3.72
2023-05-11T08:12:41.929Z,3.10
2023-05-11T08:13:44.347Z,6.28
2023-05-11T08:14:46.666Z,3.95
2023-05-11T08:15:49.108Z,3.90
2023-05-11T08:16:51.424Z,4.20
2023-05-11T08:17:54.138Z,3.67
2023-05-11T08:18:56.498Z,5.13
2023-05-11T08:19:59.227Z,3.20
2023-05-11T08:21:01.760Z,3.15
2023-05-11T08:22:04.668Z,4.65
2023-05-11T08:23:06.964Z,3.20
2023-05-11T08:24:09.532Z,3.22
2023-05-11T08:25:11.909Z,3.20
2023-05-11T08:26:14.170Z,3.20
2023-05-11T08:27:16.727Z,3.92
2023-05-11T08:28:20.042Z,4.88
2023-05-11T08:29:22.444Z,3.92
2023-05-11T08:30:24.737Z,2.97
2023-05-11T08:31:27.167Z,3.28
2023-05-11T08:32:29.777Z,2.97
2023-05-11T08:33:37.985Z,3.08
2023-05-11T08:34:41.259Z,3.40
2023-05-11T08:35:45.323Z,3.35
2023-05-11T08:36:48.198Z,3.40
2023-05-11T08:37:50.473Z,3.97
2023-05-11T08:38:57.005Z,4.70
2023-05-11T08:40:01.298Z,3.60
2023-05-11T08:41:03.745Z,4.00
2023-05-11T08:42:07.350Z,4.10
2023-05-11T08:43:10.504Z,3.22
2023-05-11T08:44:14.939Z,3.75
2023-05-11T08:45:18.095Z,3.85
2023-05-11T08:46:22.947Z,3.40
2023-05-11T08:47:25.595Z,3.30
2023-05-11T08:48:28.967Z,3.60
2023-05-11T08:49:31.524Z,3.20
2023-05-11T08:50:34.179Z,4.72
2023-05-11T08:51:36.611Z,3.20
2023-05-11T08:52:40.904Z,3.17
2023-05-11T08:53:43.169Z,3.40
2023-05-11T08:54:46.284Z,3.00
2023-05-11T08:55:51.643Z,3.25
2023-05-11T08:56:55.237Z,3.63
2023-05-11T08:58:00.866Z,3.20
2023-05-11T08:59:05.395Z,3.53
2023-05-11T09:00:08.529Z,3.10
2023-05-11T09:01:12.470Z,3.00
2023-05-11T09:02:19.375Z,3.17
2023-05-11T09:03:21.804Z,3.13
2023-05-11T09:04:25.166Z,3.10
2023-05-11T09:05:28.310Z,3.67
2023-05-11T09:06:31.452Z,4.72
2023-05-11T09:07:37.543Z,7.65
2023-05-11T09:08:40.116Z,3.13
2023-05-11T09:09:42.574Z,2.88
2023-05-11T09:10:45.294Z,6.30
2023-05-11T09:11:47.829Z,5.35
2023-05-11T09:12:50.123Z,3.50
2023-05-11T09:13:52.610Z,3.40
2023-05-11T09:14:55.007Z,4.47
2023-05-11T09:16:04.153Z,3.13
2023-05-11T09:17:06.791Z,4.00
2023-05-11T09:18:09.128Z,3.35
2023-05-11T09:19:18.388Z,3.10
2023-05-11T09:20:29.352Z,3.33
2023-05-11T09:21:32.417Z,3.55
2023-05-11T09:22:41.274Z,3.22
2023-05-11T09:23:43.963Z,3.83
2023-05-11T09:24:47.739Z,7.40
2023-05-11T09:25:51.206Z,3.28
2023-05-11T09:27:09.714Z,4.15
2023-05-11T09:28:15.865Z,5.50
2023-05-11T09:29:19.874Z,2.92
2023-05-11T09:30:23.978Z,3.78
2023-05-11T09:31:39.105Z,3.35
2023-05-11T09:32:57.945Z,2.80
2023-05-11T09:34:21.373Z,3.38
2023-05-11T09:35:30.489Z,4.65
2023-05-11T09:36:32.773Z,4.32
2023-05-11T09:37:35.161Z,3.72
2023-05-11T09:38:38.834Z,3.63
2023-05-11T09:39:57.445Z,4.53
2023-05-11T09:41:05.056Z,3.13
2023-05-11T09:42:14.379Z,3.22
2023-05-11T09:43:27.278Z,4.75
2023-05-11T09:44:32.038Z,2.75
2023-05-11T09:45:44.643Z,3.00
2023-05-11T09:46:47.876Z,2.78
2023-05-11T09:47:50.277Z,3.13
2023-05-11T09:49:00.913Z,3.00
2023-05-11T09:50:16.700Z,3.10
2023-05-11T09:51:31.282Z,4.45
2023-05-11T09:52:33.644Z,3.00
2023-05-11T09:53:45.606Z,4.93
2023-05-11T09:54:50.619Z,3.40
2023-05-11T09:55:54.763Z,2.83
2023-05-11T09:57:00.437Z,5.53
2023-05-11T09:58:04.617Z,2.90
2023-05-11T09:59:06.973Z,3.15
2023-05-11T10:00:15.182Z,4.45
2023-05-11T10:01:29.012Z,3.55
2023-05-11T10:02:32.354Z,3.90
2023-05-11T10:03:46.168Z,3.10
2023-05-11T10:04:49.763Z,4.47
2023-05-11T10:06:00.064Z,3.45
2023-05-11T10:07:02.478Z,4.25
2023-05-11T10:08:06.321Z,3.10
2023-05-11T10:09:09.603Z,3.10
2023-05-11T10:10:12.745Z,3.05
2023-05-11T10:11:15.277Z,2.63
2023-05-11T10:12:21.455Z,3.25
2023-05-11T10:13:27.336Z,2.70
2023-05-11T10:14:32.300Z,2.78
2023-05-11T10:15:37.131Z,3.05
2023-05-11T10:16:42.580Z,2.70
2023-05-11T10:17:45.231Z,3.88
2023-05-11T10:18:48.669Z,2.90
2023-05-11T10:19:52.028Z,2.60
2023-05-11T10:20:55.960Z,3.00
2023-05-11T10:22:00.600Z,3.72
2023-05-11T10:23:03.583Z,2.80
2023-05-11T10:24:06.963Z,3.10
2023-05-11T10:25:10.213Z,2.40
2023-05-11T10:26:13.528Z,2.72
2023-05-11T10:27:16.008Z,4.10
2023-05-11T10:28:21.351Z,3.15
2023-05-11T10:29:24.217Z,2.88
2023-05-11T10:30:27.207Z,2.80
2023-05-11T10:31:30.108Z,5.22
2023-05-11T10:32:37.708Z,3.00
2023-05-11T10:33:41.945Z,3.13
2023-05-11T10:34:46.590Z,3.88
2023-05-11T10:35:50.317Z,6.10
2023-05-11T10:36:53.840Z,2.40
2023-05-11T10:37:56.248Z,2.85
2023-05-11T10:38:59.074Z,2.40
2023-05-11T10:40:01.732Z,3.58
2023-05-11T10:41:22.444Z,3.63
2023-05-11T10:42:37.820Z,3.15
2023-05-11T10:44:03.508Z,3.42
2023-05-11T10:45:26.679Z,3.30
2023-05-11T10:46:56.865Z,2.25
2023-05-11T10:48:46.010Z,2.97
2023-05-11T10:50:13.573Z,3.15
2023-05-11T10:52:00.955Z,3.63
2023-05-11T10:53:22.578Z,3.03
2023-05-11T10:55:07.801Z,3.40
2023-05-11T10:56:31.996Z,2.72
2023-05-11T10:58:07.929Z,2.25
2023-05-11T10:59:29.770Z,3.17
2023-05-11T11:01:08.614Z,2.42
2023-05-11T11:02:11.152Z,2.30
2023-05-11T11:03:14.874Z,3.85
2023-05-11T11:04:17.577Z,3.92
2023-05-11T11:05:38.314Z,2.85
2023-05-11T11:06:44.377Z,2.97
2023-05-11T11:08:00.459Z,2.40
2023-05-11T11:09:06.247Z,2.50
2023-05-11T11:10:09.334Z,3.47
2023-05-11T11:11:32.219Z,3.28
2023-05-11T11:12:37.703Z,3.30
2023-05-11T11:14:02.608Z,3.72
2023-05-11T11:15:07.175Z,4.60
2023-05-11T11:16:09.726Z,3.00
2023-05-11T11:17:21.060Z,3.17
2023-05-11T11:18:31.395Z,2.50
2023-05-11T11:19:33.762Z,3.15
2023-05-11T11:20:47.372Z,2.33
2023-05-11T11:21:49.656Z,2.88
2023-05-11T11:22:52.709Z,2.67
2023-05-11T11:23:55.127Z,3.20
2023-05-11T11:24:57.459Z,4.50
2023-05-11T11:25:59.883Z,2.58
2023-05-11T11:27:02.249Z,3.20
2023-05-11T11:28:04.696Z,2.60
2023-05-11T11:29:11.522Z,2.80
2023-05-11T11:30:29.099Z,2.72
2023-05-11T11:31:33.151Z,3.72
2023-05-11T11:32:35.972Z,3.08
2023-05-11T11:33:38.245Z,3.08
2023-05-11T11:34:40.513Z,3.45
2023-05-11T11:35:43.035Z,2.33
2023-05-11T11:37:04.572Z,2.45
2023-05-11T11:38:20.638Z,2.63
2023-05-11T11:39:25.585Z,2.63
2023-05-11T11:40:49.605Z,3.22
2023-05-11T11:42:07.464Z,4.13
2023-05-11T11:43:17.818Z,2.65
2023-05-11T11:44:23.201Z,2.60
2023-05-11T11:45:31.236Z,2.50
2023-05-11T11:46:33.574Z,2.70
2023-05-11T11:47:35.922Z,2.38
2023-05-11T11:48:40.918Z,2.53
2023-05-11T11:50:13.828Z,2.95
2023-05-11T11:51:16.376Z,3.10
2023-05-11T11:52:28.069Z,2.45
2023-05-11T11:53:36.169Z,2.40
2023-05-11T11:54:45.168Z,3.30
2023-05-11T11:55:49.138Z,2.42
2023-05-11T11:56:51.736Z,5.15
2023-05-11T11:57:54.049Z,2.58
2023-05-11T11:58:56.272Z,2.47
2023-05-11T12:00:07.035Z,2.40
2023-05-11T12:01:20.087Z,2.75
2023-05-11T12:02:23.606Z,3.35
2023-05-11T12:03:26.404Z,5.75
2023-05-11T12:04:39.402Z,3.00
2023-05-11T12:05:45.186Z,2.78
2023-05-11T12:06:56.280Z,3.28
2023-05-11T12:08:04.491Z,2.20
2023-05-11T12:09:08.431Z,2.70
2023-05-11T12:10:13.171Z,4.78
2023-05-11T12:11:17.856Z,2.75
2023-05-11T12:12:21.185Z,2.42
2023-05-11T12:13:25.317Z,2.75
2023-05-11T12:14:28.626Z,3.63
2023-05-11T12:15:34.470Z,2.85
2023-05-11T12:16:36.741Z,3.20
2023-05-11T12:17:39.279Z,3.78
2023-05-11T12:18:42.944Z,2.92
2023-05-11T12:19:45.833Z,2.72
2023-05-11T12:20:50.928Z,2.38
2023-05-11T12:21:53.282Z,2.85
2023-05-11T12:22:56.710Z,2.60
2023-05-11T12:24:03.916Z,3.10
2023-05-11T12:25:08.476Z,3.05
2023-05-11T12:26:10.780Z,2.40
2023-05-11T12:27:13.050Z,2.40
2023-05-11T12:28:19.755Z,3.10
2023-05-11T12:29:22.119Z,2.50
2023-05-11T12:30:26.602Z,2.60
2023-05-11T12:31:34.730Z,2.97
2023-05-11T12:32:37.172Z,3.80
2023-05-11T12:33:50.194Z,3.40
2023-05-11T12:35:04.450Z,2.63
2023-05-11T12:36:07.264Z,3.20
2023-05-11T12:37:09.655Z,3.13
2023-05-11T12:38:12.293Z,3.72
2023-05-11T12:39:18.251Z,3.28
2023-05-11T12:40:20.679Z,2.88
2023-05-11T12:41:23.966Z,5.10
2023-05-11T12:42:26.617Z,2.67
2023-05-11T12:43:28.933Z,5.40
2023-05-11T12:44:32.847Z,3.13
2023-05-11T12:45:35.133Z,2.83
2023-05-11T12:46:37.860Z,5.70
2023-05-11T12:47:40.602Z,2.45
2023-05-11T12:48:43.315Z,3.28
2023-05-11T12:49:45.669Z,2.33
2023-05-11T12:50:47.983Z,2.58
2023-05-11T12:51:57.447Z,2.30
2023-05-11T12:53:19.627Z,2.67
2023-05-11T12:54:33.963Z,3.17
2023-05-11T12:55:36.230Z,2.38
2023-05-11T12:56:48.580Z,5.47
2023-05-11T12:57:54.735Z,2.58
2023-05-11T12:58:57.033Z,3.65
2023-05-11T13:00:11.933Z,3.92
2023-05-11T13:01:14.262Z,3.10
2023-05-11T13:02:19.409Z,5.25
2023-05-11T13:03:26.803Z,3.72
2023-05-11T13:04:30.746Z,2.50
2023-05-11T13:05:33.047Z,3.03
2023-05-11T13:06:35.863Z,2.92
2023-05-11T13:07:38.198Z,2.75
2023-05-11T13:08:45.655Z,4.38
2023-05-11T13:09:56.433Z,2.90
2023-05-11T13:11:27.017Z,2.58
2023-05-11T13:12:32.265Z,2.97
2023-05-11T13:13:34.864Z,2.80
2023-05-11T13:14:37.157Z,3.95
2023-05-11T13:15:52.561Z,5.13
2023-05-11T13:16:54.977Z,2.63
2023-05-11T13:18:03.694Z,2.28
2023-05-11T13:19:08.659Z,3.60
2023-05-11T13:20:26.925Z,6.25
2023-05-11T13:21:30.155Z,4.75
2023-05-11T13:22:32.513Z,3.83
2023-05-11T13:23:34.833Z,3.10
2023-05-11T13:24:37.087Z,4.03
2023-05-11T13:25:45.501Z,4.50
2023-05-11T13:26:47.837Z,5.22
2023-05-11T13:27:50.129Z,3.42
2023-05-11T13:29:08.564Z,2.42
2023-05-11T13:30:14.249Z,3.28
2023-05-11T13:31:17.252Z,2.40
2023-05-11T13:32:19.610Z,3.92
2023-05-11T13:33:22.210Z,3.03
2023-05-11T13:34:25.633Z,2.30
2023-05-11T13:35:27.918Z,3.20
2023-05-11T13:36:30.170Z,3.08
2023-05-11T13:37:32.598Z,2.53
2023-05-11T13:38:34.903Z,3.30
2023-05-11T13:39:37.435Z,3.03
2023-05-11T13:40:40.228Z,2.65
2023-05-11T13:41:42.742Z,2.60
2023-05-11T13:42:45.007Z,2.40
2023-05-11T13:43:48.889Z,2.80
2023-05-11T13:44:51.192Z,3.15
2023-05-11T13:45:53.467Z,2.53
2023-05-11T13:46:55.917Z,4.00
2023-05-11T13:47:58.265Z,3.50
2023-05-11T13:49:00.988Z,2.45
2023-05-11T13:50:03.987Z,3.42
2023-05-11T13:51:06.255Z,3.55
2023-05-11T13:52:09.012Z,2.33
2023-05-11T13:53:13.543Z,2.53
2023-05-11T13:54:16.115Z,3.65
2023-05-11T13:55:18.926Z,2.33
2023-05-11T13:56:22.272Z,2.88
2023-05-11T13:57:24.717Z,2.45
2023-05-11T13:58:27.192Z,3.00
2023-05-11T13:59:29.425Z,4.05
2023-05-11T14:00:32.049Z,2.42
2023-05-11T14:01:34.388Z,2.33
2023-05-11T14:02:36.918Z,5.28
2023-05-11T14:03:40.098Z,2.40
2023-05-11T14:04:42.454Z,2.20
2023-05-11T14:05:44.693Z,2.47
2023-05-11T14:06:47.467Z,2.33
2023-05-11T14:07:49.778Z,2.90
2023-05-11T14:08:52.463Z,2.42
2023-05-11T14:09:54.771Z,3.65
2023-05-11T14:10:57.070Z,2.38
2023-05-11T14:12:00.178Z,2.30
2023-05-11T14:13:02.448Z,2.60
2023-05-11T14:14:04.964Z,2.28
2023-05-11T14:15:07.960Z,2.63
2023-05-11T14:16:10.295Z,2.15
2023-05-11T14:17:13.857Z,3.47
2023-05-11T14:18:16.314Z,2.92
2023-05-11T14:19:18.889Z,2.35
2023-05-11T14:20:21.230Z,3.75
2023-05-11T14:21:23.622Z,2.35
2023-05-11T14:22:26.106Z,2.15
2023-05-11T14:23:28.494Z,2.55
2023-05-11T14:24:30.945Z,2.88
2023-05-11T14:25:33.696Z,3.10
2023-05-11T14:26:36.002Z,2.63
2023-05-11T14:27:38.406Z,2.38
2023-05-11T14:28:41.325Z,2.92
2023-05-11T14:29:45.489Z,2.63
2023-05-11T14:30:47.826Z,3.30